Time;durP1;ratioP1;P1;durP2;ratioP2;P2;SDS_P1;SDS_P2;PMS_P1;PMS_P2;Temp;Humidity;BMP_temperature;BMP_pressure;BME280_temperature;BME280_humidity;BME280_pressure;Samples;Min_cycle;Max_cycle;Signal;HPM_P1;HPM_P2
2022/07/26 00:00:41;;;;;;;;;;;;;;;;;;2089875;28;19925;-47
2022/07/26 00:01:42;;;;;;;;;;;;;;;;;;2089618;28;19932;-45
2022/07/26 00:02:43;;;;;;;;;;;;;;;;;;2089627;28;19932;-44
2022/07/26 00:03:48;;;;;;;;;;;;;;;;;;2089754;28;20023;-45
2022/07/26 00:04:49;;;;;;;;;;;;;;;;;;2089736;28;19959;-45
2022/07/26 00:05:50;;;;;;;;;;;;;;;;;;2089645;28;20018;-44
2022/07/26 00:06:51;;;;;;;;;;;;;;;;;;2089642;28;19964;-45
2022/07/26 00:08:09;;;;;;;;;;;;;;;;;;2089887;28;19956;-44
2022/07/26 00:09:10;;;;;;;;;;;;;;;;;;2089726;28;19998;-45
2022/07/26 00:10:11;;;;;;;;;;;;;;;;;;2089737;28;19968;-45
2022/07/26 00:11:12;;;;;;;;;;;;;;;;;;2087277;28;19967;-44
2022/07/26 00:12:13;;;;;;;;;;;;;;;;;;2081534;28;19932;-44
2022/07/26 00:13:16;;;;;;;;;;;;;;;;;;2081399;28;19975;-45
2022/07/26 00:14:16;;;;;;;;;;;;;;;;;;2081545;28;19929;-45
2022/07/26 00:15:18;;;;;;;;;;;;;;;;;;2081610;28;19964;-45
2022/07/26 00:16:18;;;;;;;;;;;;;;;;;;2081342;28;20039;-46
2022/07/26 00:17:19;;;;;;;;;;;;;;;;;;2081315;28;20037;-45
2022/07/26 00:18:20;;;;;;;;;;;;;;;;;;2081425;28;19936;-46
2022/07/26 00:19:21;;;;;;;;;;;;;;;;;;2081460;28;19932;-45
2022/07/26 00:20:22;;;;;;;;;;;;;;;;;;2081297;28;19929;-45
2022/07/26 00:21:23;;;;;;;;;;;;;;;;;;2081382;28;20004;-45
2022/07/26 00:22:33;;;;;;;;;;;;;;;;;;2081399;28;20002;-45
2022/07/26 00:23:34;;;;;;;;;;;;;;;;;;2081315;28;19999;-45
2022/07/26 00:24:34;;;;;;;;;;;;;;;;;;2081399;28;20003;-45
2022/07/26 00:25:36;;;;;;;;;;;;;;;;;;2081455;28;20292;-43
2022/07/26 00:26:36;;;;;;;;;;;;;;;;;;2081228;28;19936;-43
2022/07/26 00:27:37;;;;;;;;;;;;;;;;;;2081463;28;19968;-46
2022/07/26 00:28:40;;;;;;;;;;;;;;;;;;2081421;28;19925;-46
2022/07/26 00:29:41;;;;;;;;;;;;;;;;;;2081206;28;19995;-43
2022/07/26 00:30:41;;;;;;;;;;;;;;;;;;2081462;28;19932;-43
2022/07/26 00:31:42;;;;;;;;;;;;;;;;;;2081286;28;19925;-44
2022/07/26 00:32:43;;;;;;;;;;;;;;;;;;2081261;28;20357;-44
2022/07/26 00:33:44;;;;;;;;;;;;;;;;;;2081322;28;19925;-45
2022/07/26 00:34:45;;;;;;;;;;;;;;;;;;2081397;28;20383;-44
2022/07/26 00:35:46;;;;;;;;;;;;;;;;;;2081282;28;20008;-44
2022/07/26 00:36:47;;;;;;;;;;;;;;;;;;2081402;28;20020;-45
2022/07/26 00:37:48;;;;;;;;;;;;;;;;;;2081465;28;19964;-46
2022/07/26 00:38:49;;;;;;;;;;;;;;;;;;2081333;28;19972;-45
2022/07/26 00:39:50;;;;;;;;;;;;;;;;;;2081452;28;19925;-44
2022/07/26 00:40:50;;;;;;;;;;;;;;;;;;2081333;28;20023;-44
2022/07/26 00:41:51;;;;;;;;;;;;;;;;;;2081291;28;19931;-45
2022/07/26 00:42:52;;;;;;;;;;;;;;;;;;2081375;28;19925;-44
2022/07/26 00:43:53;;;;;;;;;;;;;;;;;;2081463;28;20251;-44
2022/07/26 00:44:54;;;;;;;;;;;;;;;;;;2081278;28;19961;-44
2022/07/26 00:45:55;;;;;;;;;;;;;;;;;;2081321;28;20260;-44
2022/07/26 00:46:56;;;;;;;;;;;;;;;;;;2081211;28;19925;-44
2022/07/26 00:47:57;;;;;;;;;;;;;;;;;;2081296;28;20296;-44
2022/07/26 00:48:57;;;;;;;;;;;;;;;;;;2081382;28;20369;-44
2022/07/26 00:49:58;;;;;;;;;;;;;;;;;;2081263;28;19925;-44
2022/07/26 00:50:59;;;;;;;;;;;;;;;;;;2081234;28;19940;-44
2022/07/26 00:52:00;;;;;;;;;;;;;;;;;;2081245;28;19965;-44
2022/07/26 00:53:01;;;;;;;;;;;;;;;;;;2081242;28;19951;-43
2022/07/26 00:54:02;;;;;;;;;;;;;;;;;;2089043;28;19935;-45
2022/07/26 00:55:03;;;;;;;;;;;;;;;;;;2081337;28;20023;-44
2022/07/26 00:56:04;;;;;;;;;;;;;;;;;;2081123;28;19979;-44
2022/07/26 00:57:05;;;;;;;;;;;;;;;;;;2081353;28;20389;-44
2022/07/26 00:58:06;;;;;;;;;;;;;;;;;;2081589;28;19952;-44
2022/07/26 00:59:06;;;;;;;;;;;;;;;;;;2081151;28;19929;-44
2022/07/26 01:00:08;;;;;;;;;;;;;;;;;;2081187;28;19925;-44
2022/07/26 01:01:09;;;;;;;;;;;;;;;;;;2081244;28;20008;-44
2022/07/26 01:02:10;;;;;;;;;;;;;;;;;;2081325;28;19925;-45
2022/07/26 01:03:22;;;;;;;;;;;;;;;;;;2081163;28;19925;-45
2022/07/26 01:04:23;;;;;;;;;;;;;;;;;;2081290;28;20243;-45
2022/07/26 01:05:24;;;;;;;;;;;;;;;;;;2081212;28;19929;-44
2022/07/26 01:06:25;;;;;;;;;;;;;;;;;;2081156;28;20359;-44
2022/07/26 01:07:27;;;;;;;;;;;;;;;;;;2081311;28;20402;-44
2022/07/26 01:08:28;;;;;;;;;;;;;;;;;;2082704;28;19929;-44
2022/07/26 01:09:29;;;;;;;;;;;;;;;;;;2082591;28;19995;-44
2022/07/26 01:10:30;;;;;;;;;;;;;;;;;;2082803;28;19936;-44
2022/07/26 01:11:31;;;;;;;;;;;;;;;;;;2087170;28;19925;-45
2022/07/26 01:12:32;;;;;;;;;;;;;;;;;;2090894;28;19960;-44
2022/07/26 01:13:33;;;;;;;;;;;;;;;;;;2090855;28;19925;-44
2022/07/26 01:14:36;;;;;;;;;;;;;;;;;;2090847;28;20020;-44
2022/07/26 01:15:36;;;;;;;;;;;;;;;;;;2090864;28;19974;-46
2022/07/26 01:16:37;;;;;;;;;;;;;;;;;;2090878;28;19925;-45
2022/07/26 01:17:38;;;;;;;;;;;;;;;;;;2090889;28;19932;-44
2022/07/26 01:18:39;;;;;;;;;;;;;;;;;;2090922;28;20223;-44
2022/07/26 01:19:40;;;;;;;;;;;;;;;;;;2090905;28;20007;-44
2022/07/26 01:20:41;;;;;;;;;;;;;;;;;;2090756;28;19929;-44
2022/07/26 01:21:42;;;;;;;;;;;;;;;;;;2090616;28;19947;-44
2022/07/26 01:22:43;;;;;;;;;;;;;;;;;;2090911;28;20011;-45
2022/07/26 01:23:44;;;;;;;;;;;;;;;;;;2090686;28;19925;-48
2022/07/26 01:24:45;;;;;;;;;;;;;;;;;;2091001;28;19925;-44
2022/07/26 01:25:45;;;;;;;;;;;;;;;;;;2090843;28;19925;-44
2022/07/26 01:26:46;;;;;;;;;;;;;;;;;;2090649;28;20023;-45
2022/07/26 01:27:47;;;;;;;;;;;;;;;;;;2090678;28;19924;-44
2022/07/26 01:28:48;;;;;;;;;;;;;;;;;;2090878;28;19963;-45
2022/07/26 01:29:50;;;;;;;;;;;;;;;;;;2090801;28;20019;-45
2022/07/26 01:30:51;;;;;;;;;;;;;;;;;;2090609;28;20374;-45
2022/07/26 01:31:52;;;;;;;;;;;;;;;;;;2090674;28;19929;-44
2022/07/26 01:32:53;;;;;;;;;;;;;;;;;;2090794;28;19995;-44
2022/07/26 01:33:54;;;;;;;;;;;;;;;;;;2090755;28;19925;-45
2022/07/26 01:34:55;;;;;;;;;;;;;;;;;;2090702;28;20013;-44
2022/07/26 01:35:55;;;;;;;;;;;;;;;;;;2090853;28;20000;-44
2022/07/26 01:36:56;;;;;;;;;;;;;;;;;;2090588;28;19951;-45
2022/07/26 01:37:57;;;;;;;;;;;;;;;;;;2090680;28;19928;-44
2022/07/26 01:38:58;;;;;;;;;;;;;;;;;;2090703;28;19932;-45
2022/07/26 01:39:59;;;;;;;;;;;;;;;;;;2090652;28;20059;-43
2022/07/26 01:41:00;;;;;;;;;;;;;;;;;;2090693;28;19975;-44
2022/07/26 01:42:01;;;;;;;;;;;;;;;;;;2090613;28;19924;-43
2022/07/26 01:43:02;;;;;;;;;;;;;;;;;;2090777;28;19964;-44
2022/07/26 01:44:02;;;;;;;;;;;;;;;;;;2090637;28;19925;-44
2022/07/26 01:45:03;;;;;;;;;;;;;;;;;;2090640;28;19925;-44
2022/07/26 01:46:04;;;;;;;;;;;;;;;;;;2090522;28;20023;-45
2022/07/26 01:47:05;;;;;;;;;;;;;;;;;;2090639;28;19928;-44
2022/07/26 01:48:07;;;;;;;;;;;;;;;;;;2090544;28;20015;-45
2022/07/26 01:49:08;;;;;;;;;;;;;;;;;;2090651;28;19924;-44
2022/07/26 01:50:09;;;;;;;;;;;;;;;;;;2090335;28;19928;-45
2022/07/26 01:51:10;;;;;;;;;;;;;;;;;;2090357;28;19925;-44
2022/07/26 01:52:10;;;;;;;;;;;;;;;;;;2090387;28;19924;-45
2022/07/26 01:53:11;;;;;;;;;;;;;;;;;;2090585;28;20409;-45
2022/07/26 01:54:12;;;;;;;;;;;;;;;;;;2090743;28;20016;-44
2022/07/26 01:55:13;;;;;;;;;;;;;;;;;;2090462;28;19924;-45
2022/07/26 01:56:14;;;;;;;;;;;;;;;;;;2090549;28;20405;-46
2022/07/26 01:57:15;;;;;;;;;;;;;;;;;;2090646;28;20023;-44
2022/07/26 01:58:16;;;;;;;;;;;;;;;;;;2090801;28;20007;-45
2022/07/26 01:59:16;;;;;;;;;;;;;;;;;;2090476;28;19994;-45
2022/07/26 02:00:17;;;;;;;;;;;;;;;;;;2090547;28;19935;-45
2022/07/26 02:01:18;;;;;;;;;;;;;;;;;;2090568;28;19974;-47
2022/07/26 02:02:39;;;;;;;;;;;;;;;;;;2090482;28;19929;-44
2022/07/26 02:03:40;;;;;;;;;;;;;;;;;;2090440;28;20286;-45
2022/07/26 02:05:00;;;;;;;;;;;;;;;;;;2090782;28;19956;-45
2022/07/26 02:06:00;;;;;;;;;;;;;;;;;;2090355;28;20449;-44
2022/07/26 02:07:01;;;;;;;;;;;;;;;;;;2090623;28;19932;-45
2022/07/26 02:08:04;;;;;;;;;;;;;;;;;;2090518;28;19924;-45
2022/07/26 02:09:05;;;;;;;;;;;;;;;;;;2090516;28;19925;-46
2022/07/26 02:10:07;;;;;;;;;;;;;;;;;;2090787;28;20015;-45
2022/07/26 02:11:08;;;;;;;;;;;;;;;;;;2088511;28;19964;-45
2022/07/26 02:12:09;;;;;;;;;;;;;;;;;;2082503;28;20376;-44
2022/07/26 02:13:10;;;;;;;;;;;;;;;;;;2082244;28;19925;-46
2022/07/26 02:14:11;;;;;;;;;;;;;;;;;;2082363;28;20012;-44
2022/07/26 02:15:12;;;;;;;;;;;;;;;;;;2082153;28;19932;-45
2022/07/26 02:16:13;;;;;;;;;;;;;;;;;;2082114;28;20374;-44
2022/07/26 02:17:14;;;;;;;;;;;;;;;;;;2082415;28;19933;-46
2022/07/26 02:18:15;;;;;;;;;;;;;;;;;;2082328;28;19931;-45
2022/07/26 02:19:16;;;;;;;;;;;;;;;;;;2081633;28;19948;-44
2022/07/26 02:20:16;;;;;;;;;;;;;;;;;;2082250;28;19925;-45
2022/07/26 02:21:17;;;;;;;;;;;;;;;;;;2082283;28;20337;-46
2022/07/26 02:22:18;;;;;;;;;;;;;;;;;;2082109;28;20004;-44
2022/07/26 02:24:42;;;;;;;;;;;;;;;;;;2082237;28;19925;-45
2022/07/26 02:25:42;;;;;;;;;;;;;;;;;;2082229;28;19968;-45
2022/07/26 02:26:43;;;;;;;;;;;;;;;;;;2082135;28;19925;-45
2022/07/26 02:27:44;;;;;;;;;;;;;;;;;;2082163;28;19978;-44
2022/07/26 02:28:45;;;;;;;;;;;;;;;;;;2082061;28;19979;-46
2022/07/26 02:29:46;;;;;;;;;;;;;;;;;;2082251;28;20012;-44
2022/07/26 02:30:47;;;;;;;;;;;;;;;;;;2082348;28;20337;-44
2022/07/26 02:31:48;;;;;;;;;;;;;;;;;;2082094;28;19925;-44
2022/07/26 02:32:49;;;;;;;;;;;;;;;;;;2082157;28;19925;-44
2022/07/26 02:33:50;;;;;;;;;;;;;;;;;;2082364;28;20321;-44
2022/07/26 02:34:51;;;;;;;;;;;;;;;;;;2082266;28;19956;-43
2022/07/26 02:35:52;;;;;;;;;;;;;;;;;;2082251;28;20011;-46
2022/07/26 02:36:53;;;;;;;;;;;;;;;;;;2082136;28;20321;-45
2022/07/26 02:37:54;;;;;;;;;;;;;;;;;;2081968;28;19929;-45
2022/07/26 02:38:55;;;;;;;;;;;;;;;;;;2082248;28;19933;-45
2022/07/26 02:39:56;;;;;;;;;;;;;;;;;;2082043;28;19925;-45
2022/07/26 02:40:56;;;;;;;;;;;;;;;;;;2082168;28;20333;-46
2022/07/26 02:41:57;;;;;;;;;;;;;;;;;;2082015;28;19936;-44
2022/07/26 02:42:58;;;;;;;;;;;;;;;;;;2081998;28;20284;-46
2022/07/26 02:43:59;;;;;;;;;;;;;;;;;;2082380;28;20553;-45
2022/07/26 02:45:00;;;;;;;;;;;;;;;;;;2082312;28;19932;-43
2022/07/26 02:46:01;;;;;;;;;;;;;;;;;;2085694;28;19928;-44
2022/07/26 02:47:02;;;;;;;;;;;;;;;;;;2090287;28;19925;-44
2022/07/26 02:48:03;;;;;;;;;;;;;;;;;;2090459;28;19971;-44
2022/07/26 02:49:04;;;;;;;;;;;;;;;;;;2090185;28;19967;-44
2022/07/26 02:50:05;;;;;;;;;;;;;;;;;;2090486;28;20411;-45
2022/07/26 02:51:06;;;;;;;;;;;;;;;;;;2090078;28;19925;-44
2022/07/26 02:52:07;;;;;;;;;;;;;;;;;;2090162;28;20019;-44
2022/07/26 02:53:08;;;;;;;;;;;;;;;;;;2090084;28;20019;-44
2022/07/26 02:54:10;;;;;;;;;;;;;;;;;;2090392;28;19925;-44
2022/07/26 02:55:11;;;;;;;;;;;;;;;;;;2090138;28;20293;-44
2022/07/26 02:56:12;;;;;;;;;;;;;;;;;;2090007;28;19925;-44
2022/07/26 02:57:13;;;;;;;;;;;;;;;;;;2090296;28;19924;-44
2022/07/26 02:58:14;;;;;;;;;;;;;;;;;;2090145;28;19925;-45
2022/07/26 02:59:15;;;;;;;;;;;;;;;;;;2090087;28;20366;-44
2022/07/26 03:00:17;;;;;;;;;;;;;;;;;;2090123;28;19963;-44
2022/07/26 03:01:17;;;;;;;;;;;;;;;;;;2090153;28;20560;-46
2022/07/26 03:02:19;;;;;;;;;;;;;;;;;;2090345;28;20039;-45
2022/07/26 03:03:20;;;;;;;;;;;;;;;;;;2090498;28;19929;-44
2022/07/26 03:04:20;;;;;;;;;;;;;;;;;;2090241;28;20298;-45
2022/07/26 03:05:21;;;;;;;;;;;;;;;;;;2090126;28;20608;-44
2022/07/26 03:06:22;;;;;;;;;;;;;;;;;;2090192;28;20011;-44
2022/07/26 03:07:23;;;;;;;;;;;;;;;;;;2089903;28;20336;-44
2022/07/26 03:08:24;;;;;;;;;;;;;;;;;;2090099;28;19925;-45
2022/07/26 03:09:25;;;;;;;;;;;;;;;;;;2090065;28;19925;-44
2022/07/26 03:10:26;;;;;;;;;;;;;;;;;;2090220;28;19925;-44
2022/07/26 03:11:26;;;;;;;;;;;;;;;;;;2085670;28;20012;-45
2022/07/26 03:12:27;;;;;;;;;;;;;;;;;;2081967;28;20016;-44
2022/07/26 03:13:28;;;;;;;;;;;;;;;;;;2081805;28;20020;-44
2022/07/26 03:14:29;;;;;;;;;;;;;;;;;;2081783;28;20506;-45
2022/07/26 03:15:30;;;;;;;;;;;;;;;;;;2081800;28;20027;-44
2022/07/26 03:16:31;;;;;;;;;;;;;;;;;;2081842;28;19925;-44
2022/07/26 03:17:32;;;;;;;;;;;;;;;;;;2081908;28;20278;-45
2022/07/26 03:18:33;;;;;;;;;;;;;;;;;;2081819;28;20011;-46
2022/07/26 03:19:34;;;;;;;;;;;;;;;;;;2082157;28;19925;-45
2022/07/26 03:20:35;;;;;;;;;;;;;;;;;;2081780;28;20012;-46
2022/07/26 03:21:36;;;;;;;;;;;;;;;;;;2081860;28;20008;-45
2022/07/26 03:22:36;;;;;;;;;;;;;;;;;;2081721;28;20351;-45
2022/07/26 03:23:37;;;;;;;;;;;;;;;;;;2081824;28;19929;-45
2022/07/26 03:24:38;;;;;;;;;;;;;;;;;;2081708;28;19971;-46
2022/07/26 03:25:39;;;;;;;;;;;;;;;;;;2081863;28;19929;-45
2022/07/26 03:26:40;;;;;;;;;;;;;;;;;;2081500;28;19980;-46
2022/07/26 03:27:41;;;;;;;;;;;;;;;;;;2081841;28;19932;-45
2022/07/26 03:28:43;;;;;;;;;;;;;;;;;;2081930;28;20023;-44
2022/07/26 03:29:44;;;;;;;;;;;;;;;;;;2081616;28;19925;-44
2022/07/26 03:30:45;;;;;;;;;;;;;;;;;;2081395;28;19937;-45
2022/07/26 03:31:46;;;;;;;;;;;;;;;;;;2080997;28;19956;-43
2022/07/26 03:32:47;;;;;;;;;;;;;;;;;;2081750;28;19929;-44
2022/07/26 03:33:48;;;;;;;;;;;;;;;;;;2081783;28;19969;-45
2022/07/26 03:34:49;;;;;;;;;;;;;;;;;;2082039;28;19925;-44
2022/07/26 03:35:50;;;;;;;;;;;;;;;;;;2081498;28;20305;-44
2022/07/26 03:36:51;;;;;;;;;;;;;;;;;;2081742;28;19925;-44
2022/07/26 03:37:52;;;;;;;;;;;;;;;;;;2081950;28;20341;-48
2022/07/26 03:38:53;;;;;;;;;;;;;;;;;;2081492;28;19925;-48
2022/07/26 03:39:54;;;;;;;;;;;;;;;;;;2081788;28;19925;-47
2022/07/26 03:40:55;;;;;;;;;;;;;;;;;;2081860;28;19961;-47
2022/07/26 03:41:56;;;;;;;;;;;;;;;;;;2082587;28;19933;-46
2022/07/26 03:42:57;;;;;;;;;;;;;;;;;;2089777;28;20330;-46
2022/07/26 03:43:58;;;;;;;;;;;;;;;;;;2089961;28;20011;-47
2022/07/26 03:44:59;;;;;;;;;;;;;;;;;;2090072;28;19924;-47
2022/07/26 03:46:00;;;;;;;;;;;;;;;;;;2089749;28;19928;-46
2022/07/26 03:47:01;;;;;;;;;;;;;;;;;;2089853;28;19936;-46
2022/07/26 03:48:02;;;;;;;;;;;;;;;;;;2089934;28;19950;-46
2022/07/26 03:49:02;;;;;;;;;;;;;;;;;;2090148;28;20016;-44
2022/07/26 03:50:03;;;;;;;;;;;;;;;;;;2089819;28;20031;-45
2022/07/26 03:51:04;;;;;;;;;;;;;;;;;;2089638;28;19925;-45
2022/07/26 03:52:05;;;;;;;;;;;;;;;;;;2089969;28;19924;-45
2022/07/26 03:53:06;;;;;;;;;;;;;;;;;;2089787;28;20305;-45
2022/07/26 03:54:07;;;;;;;;;;;;;;;;;;2089725;28;19931;-45
2022/07/26 03:56:33;;;;;;;;;;;;;;;;;;2089551;28;20509;-45
2022/07/26 03:57:34;;;;;;;;;;;;;;;;;;2089730;28;19924;-47
2022/07/26 03:58:35;;;;;;;;;;;;;;;;;;2089872;28;19925;-45
2022/07/26 03:59:36;;;;;;;;;;;;;;;;;;2089870;28;19932;-45
2022/07/26 04:00:37;;;;;;;;;;;;;;;;;;2089653;28;20279;-45
2022/07/26 04:01:40;;;;;;;;;;;;;;;;;;2090064;28;19931;-44
2022/07/26 04:02:41;;;;;;;;;;;;;;;;;;2089703;28;19929;-44
2022/07/26 04:03:42;;;;;;;;;;;;;;;;;;2089971;28;19925;-44
2022/07/26 04:04:48;;;;;;;;;;;;;;;;;;2089948;28;19936;-45
2022/07/26 04:05:49;;;;;;;;;;;;;;;;;;2089893;28;19925;-46
2022/07/26 04:06:50;;;;;;;;;;;;;;;;;;2089769;28;19925;-44
2022/07/26 04:07:50;;;;;;;;;;;;;;;;;;2089881;28;19925;-45
2022/07/26 04:08:53;;;;;;;;;;;;;;;;;;2089814;28;20058;-44
2022/07/26 04:09:54;;;;;;;;;;;;;;;;;;2089658;28;20029;-45
2022/07/26 04:10:55;;;;;;;;;;;;;;;;;;2089704;28;19976;-44
2022/07/26 04:11:55;;;;;;;;;;;;;;;;;;2081297;28;19925;-44
2022/07/26 04:12:56;;;;;;;;;;;;;;;;;;2081719;28;19957;-43
2022/07/26 04:13:57;;;;;;;;;;;;;;;;;;2081536;28;20280;-44
2022/07/26 04:14:58;;;;;;;;;;;;;;;;;;2081366;28;19925;-43
2022/07/26 04:15:59;;;;;;;;;;;;;;;;;;2081325;28;20374;-45
2022/07/26 04:17:00;;;;;;;;;;;;;;;;;;2081392;28;19925;-45
2022/07/26 04:18:01;;;;;;;;;;;;;;;;;;2081325;28;19932;-44
2022/07/26 04:19:02;;;;;;;;;;;;;;;;;;2081351;28;19925;-46
2022/07/26 04:20:03;;;;;;;;;;;;;;;;;;2081426;28;19947;-44
2022/07/26 04:21:04;;;;;;;;;;;;;;;;;;2081672;28;19984;-47
2022/07/26 04:22:05;;;;;;;;;;;;;;;;;;2081583;28;19925;-46
2022/07/26 04:23:06;;;;;;;;;;;;;;;;;;2081690;28;19948;-46
2022/07/26 04:24:10;;;;;;;;;;;;;;;;;;2081765;28;19960;-44
2022/07/26 04:25:12;;;;;;;;;;;;;;;;;;2081361;28;19929;-44
2022/07/26 04:26:13;;;;;;;;;;;;;;;;;;2081512;28;20047;-46
2022/07/26 04:27:14;;;;;;;;;;;;;;;;;;2081293;28;20023;-45
2022/07/26 04:28:14;;;;;;;;;;;;;;;;;;2081197;28;20282;-44
2022/07/26 04:29:15;;;;;;;;;;;;;;;;;;2081493;28;19936;-44
2022/07/26 04:30:16;;;;;;;;;;;;;;;;;;2081283;28;20501;-44
2022/07/26 04:31:17;;;;;;;;;;;;;;;;;;2081253;28;19968;-44
2022/07/26 04:32:18;;;;;;;;;;;;;;;;;;2081503;28;19925;-47
2022/07/26 04:33:19;;;;;;;;;;;;;;;;;;2081835;28;20047;-44
2022/07/26 04:34:20;;;;;;;;;;;;;;;;;;2081396;28;20028;-44
2022/07/26 04:35:21;;;;;;;;;;;;;;;;;;2081448;28;19925;-44
2022/07/26 04:36:22;;;;;;;;;;;;;;;;;;2081355;28;20012;-45
2022/07/26 04:37:23;;;;;;;;;;;;;;;;;;2081613;28;19925;-46
2022/07/26 04:38:23;;;;;;;;;;;;;;;;;;2084310;28;19975;-47
2022/07/26 04:39:24;;;;;;;;;;;;;;;;;;2089703;28;19924;-47
2022/07/26 04:40:27;;;;;;;;;;;;;;;;;;2089540;28;20008;-43
2022/07/26 04:41:28;;;;;;;;;;;;;;;;;;2089699;28;20020;-44
2022/07/26 04:42:29;;;;;;;;;;;;;;;;;;2089849;28;19936;-45
2022/07/26 04:43:30;;;;;;;;;;;;;;;;;;2091248;28;20452;-46
2022/07/26 04:44:30;;;;;;;;;;;;;;;;;;2091173;28;19925;-45
2022/07/26 04:45:31;;;;;;;;;;;;;;;;;;2091474;28;19925;-46
2022/07/26 04:46:32;;;;;;;;;;;;;;;;;;2090867;28;19994;-46
2022/07/26 04:47:33;;;;;;;;;;;;;;;;;;2090922;28;20368;-49
2022/07/26 04:48:34;;;;;;;;;;;;;;;;;;2090855;28;19931;-50
2022/07/26 04:49:35;;;;;;;;;;;;;;;;;;2091080;28;19978;-46
2022/07/26 04:50:36;;;;;;;;;;;;;;;;;;2090954;28;19928;-49
2022/07/26 04:51:37;;;;;;;;;;;;;;;;;;2091221;28;20007;-47
2022/07/26 04:52:38;;;;;;;;;;;;;;;;;;2091194;28;19924;-46
2022/07/26 04:53:39;;;;;;;;;;;;;;;;;;2090905;28;19925;-51
2022/07/26 04:54:39;;;;;;;;;;;;;;;;;;2091359;28;19936;-46
2022/07/26 04:55:40;;;;;;;;;;;;;;;;;;2091185;28;19925;-44
2022/07/26 04:56:41;;;;;;;;;;;;;;;;;;2090872;28;19924;-44
2022/07/26 04:57:42;;;;;;;;;;;;;;;;;;2091045;28;19932;-45
2022/07/26 04:58:43;;;;;;;;;;;;;;;;;;2090806;28;20329;-44
2022/07/26 04:59:44;;;;;;;;;;;;;;;;;;2091106;28;19925;-49
2022/07/26 05:00:54;;;;;;;;;;;;;;;;;;2091206;28;20145;-48
2022/07/26 05:02:13;;;;;;;;;;;;;;;;;;2091060;28;19967;-44
2022/07/26 05:03:15;;;;;;;;;;;;;;;;;;2091157;28;19971;-47
2022/07/26 05:04:15;;;;;;;;;;;;;;;;;;2090975;28;19994;-47
2022/07/26 05:05:17;;;;;;;;;;;;;;;;;;2090844;28;20393;-48
2022/07/26 05:06:18;;;;;;;;;;;;;;;;;;2090782;28;20386;-47
2022/07/26 05:07:18;;;;;;;;;;;;;;;;;;2090687;28;20023;-47
2022/07/26 05:08:19;;;;;;;;;;;;;;;;;;2091291;28;19924;-46
2022/07/26 05:09:20;;;;;;;;;;;;;;;;;;2091012;28;20003;-44
2022/07/26 05:10:21;;;;;;;;;;;;;;;;;;2091097;28;20020;-47
2022/07/26 05:11:22;;;;;;;;;;;;;;;;;;2087126;28;19932;-47
2022/07/26 05:12:23;;;;;;;;;;;;;;;;;;2082763;28;19926;-48
2022/07/26 05:13:24;;;;;;;;;;;;;;;;;;2082708;28;19925;-44
2022/07/26 05:14:30;;;;;;;;;;;;;;;;;;2082638;28;20267;-44
2022/07/26 05:15:31;;;;;;;;;;;;;;;;;;2082554;28;19967;-44
2022/07/26 05:16:35;;;;;;;;;;;;;;;;;;2083066;28;19960;-46
2022/07/26 05:17:36;;;;;;;;;;;;;;;;;;2083243;28;19979;-48
2022/07/26 05:18:37;;;;;;;;;;;;;;;;;;2082908;28;20292;-44
2022/07/26 05:19:46;;;;;;;;;;;;;;;;;;2082537;28;20374;-45
2022/07/26 05:20:49;;;;;;;;;;;;;;;;;;2082650;28;19970;-44
2022/07/26 05:21:50;;;;;;;;;;;;;;;;;;2082490;28;20012;-44
2022/07/26 05:22:51;;;;;;;;;;;;;;;;;;2082629;28;19925;-44
2022/07/26 05:23:52;;;;;;;;;;;;;;;;;;2082672;28;19926;-44
2022/07/26 05:24:53;;;;;;;;;;;;;;;;;;2082776;28;20375;-45
2022/07/26 05:25:55;;;;;;;;;;;;;;;;;;2082640;28;19926;-45
2022/07/26 05:26:55;;;;;;;;;;;;;;;;;;2082585;28;19925;-43
2022/07/26 05:27:59;;;;;;;;;;;;;;;;;;2082521;28;19925;-44
2022/07/26 05:28:59;;;;;;;;;;;;;;;;;;2082434;28;20299;-44
2022/07/26 05:30:00;;;;;;;;;;;;;;;;;;2082936;28;20011;-47
2022/07/26 05:31:01;;;;;;;;;;;;;;;;;;2082388;28;20365;-46
2022/07/26 05:32:02;;;;;;;;;;;;;;;;;;2082762;28;19926;-44
2022/07/26 05:33:03;;;;;;;;;;;;;;;;;;2083208;28;19956;-43
2022/07/26 05:34:04;;;;;;;;;;;;;;;;;;2082468;28;20012;-44
2022/07/26 05:35:05;;;;;;;;;;;;;;;;;;2088739;28;19924;-45
2022/07/26 05:36:06;;;;;;;;;;;;;;;;;;2090684;28;19925;-47
2022/07/26 05:37:07;;;;;;;;;;;;;;;;;;2091121;28;20019;-47
2022/07/26 05:38:08;;;;;;;;;;;;;;;;;;2090661;28;19929;-47
2022/07/26 05:39:09;;;;;;;;;;;;;;;;;;2091276;28;19924;-46
2022/07/26 05:40:14;;;;;;;;;;;;;;;;;;2091243;28;19925;-48
2022/07/26 05:41:15;;;;;;;;;;;;;;;;;;2091161;28;20453;-44
2022/07/26 05:42:16;;;;;;;;;;;;;;;;;;2091193;28;19929;-48
2022/07/26 05:43:17;;;;;;;;;;;;;;;;;;2090753;28;19964;-46
2022/07/26 05:44:18;;;;;;;;;;;;;;;;;;2090701;28;20859;-48
2022/07/26 05:45:19;;;;;;;;;;;;;;;;;;2091134;28;20007;-45
2022/07/26 05:46:20;;;;;;;;;;;;;;;;;;2090908;28;20445;-47
2022/07/26 05:47:20;;;;;;;;;;;;;;;;;;2090695;28;20275;-45
2022/07/26 05:48:22;;;;;;;;;;;;;;;;;;2091283;28;19948;-44
2022/07/26 05:49:24;;;;;;;;;;;;;;;;;;2090690;28;19924;-44
2022/07/26 05:50:25;;;;;;;;;;;;;;;;;;2091206;28;20015;-45
2022/07/26 05:51:26;;;;;;;;;;;;;;;;;;2090859;28;19931;-47
2022/07/26 05:52:27;;;;;;;;;;;;;;;;;;2091094;28;20309;-44
2022/07/26 05:53:28;;;;;;;;;;;;;;;;;;2090753;28;19925;-45
2022/07/26 05:54:29;;;;;;;;;;;;;;;;;;2089539;28;20027;-45
2022/07/26 05:55:29;;;;;;;;;;;;;;;;;;2090559;28;19979;-44
2022/07/26 05:56:30;;;;;;;;;;;;;;;;;;2090629;28;20282;-44
2022/07/26 05:57:32;;;;;;;;;;;;;;;;;;2091071;28;20008;-47
2022/07/26 05:58:32;;;;;;;;;;;;;;;;;;2091077;28;20449;-44
2022/07/26 05:59:33;;;;;;;;;;;;;;;;;;2091490;28;19925;-47
2022/07/26 06:00:34;;;;;;;;;;;;;;;;;;2090753;28;20181;-47
2022/07/26 06:01:35;;;;;;;;;;;;;;;;;;2090635;28;19928;-47
2022/07/26 06:02:36;;;;;;;;;;;;;;;;;;2090590;28;19983;-44
2022/07/26 06:03:37;;;;;;;;;;;;;;;;;;2090504;28;19979;-44
2022/07/26 06:04:38;;;;;;;;;;;;;;;;;;2090531;28;19924;-44
2022/07/26 06:05:40;;;;;;;;;;;;;;;;;;2091007;28;19990;-47
2022/07/26 06:06:40;;;;;;;;;;;;;;;;;;2090864;28;20019;-45
2022/07/26 06:07:41;;;;;;;;;;;;;;;;;;2090599;28;19932;-44
2022/07/26 06:08:42;;;;;;;;;;;;;;;;;;2090729;28;19925;-43
2022/07/26 06:09:43;;;;;;;;;;;;;;;;;;2090492;28;20426;-43
2022/07/26 06:10:44;;;;;;;;;;;;;;;;;;2090646;28;19925;-43
2022/07/26 06:11:45;;;;;;;;;;;;;;;;;;2083982;28;19909;-47
2022/07/26 06:12:45;;;;;;;;;;;;;;;;;;2082735;28;19925;-47
2022/07/26 06:13:47;;;;;;;;;;;;;;;;;;2082597;28;19933;-44
2022/07/26 06:14:47;;;;;;;;;;;;;;;;;;2082755;28;19971;-47
2022/07/26 06:15:48;;;;;;;;;;;;;;;;;;2082409;28;20059;-48
2022/07/26 06:16:49;;;;;;;;;;;;;;;;;;2082443;28;19987;-43
2022/07/26 06:17:50;;;;;;;;;;;;;;;;;;2082382;28;19932;-47
2022/07/26 06:18:51;;;;;;;;;;;;;;;;;;2082283;28;19925;-46
2022/07/26 06:19:52;;;;;;;;;;;;;;;;;;2082856;28;20397;-47
2022/07/26 06:20:53;;;;;;;;;;;;;;;;;;2082754;28;20430;-45
2022/07/26 06:21:54;;;;;;;;;;;;;;;;;;2082661;28;19925;-47
2022/07/26 06:22:57;;;;;;;;;;;;;;;;;;2082786;28;19960;-45
2022/07/26 06:23:59;;;;;;;;;;;;;;;;;;2082791;28;19968;-44
2022/07/26 06:24:59;;;;;;;;;;;;;;;;;;2082311;28;19952;-45
2022/07/26 06:26:00;;;;;;;;;;;;;;;;;;2082228;28;19925;-44
2022/07/26 06:27:02;;;;;;;;;;;;;;;;;;2082259;28;19947;-48
2022/07/26 06:28:06;;;;;;;;;;;;;;;;;;2082329;28;20274;-47
2022/07/26 06:29:07;;;;;;;;;;;;;;;;;;2082648;28;20378;-48
2022/07/26 06:30:08;;;;;;;;;;;;;;;;;;2082573;28;19928;-43
2022/07/26 06:31:09;;;;;;;;;;;;;;;;;;2087308;28;19925;-44
2022/07/26 06:32:10;;;;;;;;;;;;;;;;;;2090950;28;20457;-45
2022/07/26 06:33:11;;;;;;;;;;;;;;;;;;2091221;28;20290;-44
2022/07/26 06:34:12;;;;;;;;;;;;;;;;;;2090877;28;19931;-47
2022/07/26 06:35:13;;;;;;;;;;;;;;;;;;2090596;28;20000;-49
2022/07/26 06:36:14;;;;;;;;;;;;;;;;;;2090768;28;20275;-45
2022/07/26 06:37:15;;;;;;;;;;;;;;;;;;2090611;28;19925;-46
2022/07/26 06:38:16;;;;;;;;;;;;;;;;;;2090750;28;20358;-49
2022/07/26 06:39:17;;;;;;;;;;;;;;;;;;2090385;28;19944;-49
2022/07/26 06:40:17;;;;;;;;;;;;;;;;;;2090586;28;19934;-48
2022/07/26 06:41:18;;;;;;;;;;;;;;;;;;2090330;28;19929;-47
2022/07/26 06:42:20;;;;;;;;;;;;;;;;;;2090570;28;19994;-45
2022/07/26 06:43:21;;;;;;;;;;;;;;;;;;2090251;28;19925;-44
2022/07/26 06:44:22;;;;;;;;;;;;;;;;;;2090477;28;20352;-44
2022/07/26 06:45:23;;;;;;;;;;;;;;;;;;2090757;28;19929;-49
2022/07/26 06:46:24;;;;;;;;;;;;;;;;;;2090150;28;19928;-49
2022/07/26 06:47:25;;;;;;;;;;;;;;;;;;2090586;28;19925;-47
2022/07/26 06:48:26;;;;;;;;;;;;;;;;;;2090803;28;19925;-44
2022/07/26 06:49:27;;;;;;;;;;;;;;;;;;2090053;28;20447;-45
2022/07/26 06:50:28;;;;;;;;;;;;;;;;;;2090347;28;19933;-45
2022/07/26 06:51:29;;;;;;;;;;;;;;;;;;2090513;28;20295;-43
2022/07/26 06:52:31;;;;;;;;;;;;;;;;;;2090268;28;19928;-45
2022/07/26 06:53:32;;;;;;;;;;;;;;;;;;2090478;28;20220;-43
2022/07/26 06:54:33;;;;;;;;;;;;;;;;;;2090464;28;19932;-45
2022/07/26 06:55:34;;;;;;;;;;;;;;;;;;2090586;28;19925;-48
2022/07/26 06:56:35;;;;;;;;;;;;;;;;;;2090142;28;20377;-46
2022/07/26 06:57:36;;;;;;;;;;;;;;;;;;2091014;28;19952;-44
2022/07/26 06:58:40;;;;;;;;;;;;;;;;;;2090188;28;19979;-44
2022/07/26 06:59:41;;;;;;;;;;;;;;;;;;2091720;28;19971;-44
2022/07/26 07:00:42;;;;;;;;;;;;;;;;;;2091386;28;19931;-47
2022/07/26 07:01:43;;;;;;;;;;;;;;;;;;2090253;28;19983;-47